Time;durP1;ratioP1;P1;durP2;ratioP2;P2;SDS_P1;SDS_P2;PMS_P1;PMS_P2;Temp;Humidity;BMP_temperature;BMP_pressure;BME280_temperature;BME280_humidity;BME280_pressure;Samples;Min_cycle;Max_cycle;Signal;HPM_P1;HPM_P2
2024/04/27 00:00:53;;;;;;;;;;;;;;;;;;5498403;26;4658;-58
2024/04/27 00:03:20;;;;;;;;;;;;;;;;;;5511889;26;5182;-57
2024/04/27 00:05:45;;;;;;;;;;;;;;;;;;5505289;26;1266;-58
2024/04/27 00:08:11;;;;;;;;;;;;;;;;;;5466575;25;4522;-58
2024/04/27 00:10:36;;;;;;;;;;;;;;;;;;5515628;25;4546;-58
2024/04/27 00:13:03;;;;;;;;;;;;;;;;;;5509862;26;5035;-58
2024/04/27 00:15:28;;;;;;;;;;;;;;;;;;5499068;26;5251;-58
2024/04/27 00:17:54;;;;;;;;;;;;;;;;;;5505966;26;3379;-58
2024/04/27 00:20:19;;;;;;;;;;;;;;;;;;5501363;26;5213;-58
2024/04/27 00:22:44;;;;;;;;;;;;;;;;;;5507511;26;4801;-58
2024/04/27 00:25:10;;;;;;;;;;;;;;;;;;5510408;25;5180;-57
2024/04/27 00:27:38;;;;;;;;;;;;;;;;;;5511489;26;5022;-58
2024/04/27 00:30:04;;;;;;;;;;;;;;;;;;5512994;26;5209;-57
2024/04/27 00:32:29;;;;;;;;;;;;;;;;;;5501344;26;3370;-58
2024/04/27 00:34:54;;;;;;;;;;;;;;;;;;5502668;26;4607;-58
2024/04/27 00:37:20;;;;;;;;;;;;;;;;;;5516126;26;5241;-57
2024/04/27 00:39:45;;;;;;;;;;;;;;;;;;5504122;26;5428;-58
2024/04/27 00:42:10;;;;;;;;;;;;;;;;;;5518723;26;5116;-58
2024/04/27 00:44:36;;;;;;;;;;;;;;;;;;5501648;26;1430;-58
2024/04/27 00:47:01;;;;;;;;;;;;;;;;;;5513222;26;5187;-58
2024/04/27 00:49:26;;;;;;;;;;;;;;;;;;5495752;26;5174;-58
2024/04/27 00:51:52;;;;;;;;;;;;;;;;;;5512495;26;5023;-58
2024/04/27 00:54:17;;;;;;;;;;;;;;;;;;5471113;26;5077;-58
2024/04/27 00:56:43;;;;;;;;;;;;;;;;;;5509472;26;1517;-58
2024/04/27 00:59:08;;;;;;;;;;;;;;;;;;5504514;26;5058;-58
2024/04/27 01:01:33;;;;;;;;;;;;;;;;;;5473673;26;5064;-58
2024/04/27 01:03:59;;;;;;;;;;;;;;;;;;5507652;26;4519;-58
2024/04/27 01:06:24;;;;;;;;;;;;;;;;;;5504163;26;5198;-58
2024/04/27 01:08:50;;;;;;;;;;;;;;;;;;5512503;26;1174;-58
2024/04/27 01:11:15;;;;;;;;;;;;;;;;;;5512252;26;5019;-58
2024/04/27 01:13:41;;;;;;;;;;;;;;;;;;5515503;26;5349;-58
2024/04/27 01:16:06;;;;;;;;;;;;;;;;;;5457976;26;5125;-58
2024/04/27 01:18:32;;;;;;;;;;;;;;;;;;5510707;26;5206;-58
2024/04/27 01:20:57;;;;;;;;;;;;;;;;;;5503198;26;4690;-58
2024/04/27 01:23:22;;;;;;;;;;;;;;;;;;5511876;25;3472;-58
2024/04/27 01:25:48;;;;;;;;;;;;;;;;;;5504079;26;5046;-58
2024/04/27 01:28:13;;;;;;;;;;;;;;;;;;5501838;26;5067;-58
2024/04/27 01:30:38;;;;;;;;;;;;;;;;;;5508635;26;5041;-58
2024/04/27 01:33:04;;;;;;;;;;;;;;;;;;5517873;26;5245;-58
2024/04/27 01:35:29;;;;;;;;;;;;;;;;;;5511449;26;3272;-58
2024/04/27 01:37:55;;;;;;;;;;;;;;;;;;5465620;26;5254;-58
2024/04/27 01:40:20;;;;;;;;;;;;;;;;;;5495097;26;5346;-58
2024/04/27 01:42:46;;;;;;;;;;;;;;;;;;5509695;26;5090;-58
2024/04/27 01:45:11;;;;;;;;;;;;;;;;;;5471651;26;5245;-58
2024/04/27 01:47:37;;;;;;;;;;;;;;;;;;5504719;26;3710;-58
2024/04/27 01:50:02;;;;;;;;;;;;;;;;;;5512184;26;5147;-58
2024/04/27 01:52:28;;;;;;;;;;;;;;;;;;5499972;26;5145;-58
2024/04/27 01:54:53;;;;;;;;;;;;;;;;;;5513811;26;5225;-58
2024/04/27 01:57:18;;;;;;;;;;;;;;;;;;5509113;25;5311;-58
2024/04/27 01:59:44;;;;;;;;;;;;;;;;;;5498100;26;3385;-57
2024/04/27 02:02:09;;;;;;;;;;;;;;;;;;5504006;26;4519;-58
2024/04/27 02:04:34;;;;;;;;;;;;;;;;;;5432665;26;5118;-57
2024/04/27 02:07:00;;;;;;;;;;;;;;;;;;5514385;26;5296;-58
2024/04/27 02:09:25;;;;;;;;;;;;;;;;;;5519541;26;4617;-58
2024/04/27 02:11:50;;;;;;;;;;;;;;;;;;5505489;26;3256;-58
2024/04/27 02:14:16;;;;;;;;;;;;;;;;;;5513027;26;5107;-58
2024/04/27 02:19:26;;;;;;;;;;;;;;;;;;5513999;26;4565;-58
2024/04/27 02:21:51;;;;;;;;;;;;;;;;;;5506632;26;4698;-58
2024/04/27 02:24:17;;;;;;;;;;;;;;;;;;5512042;25;4588;-58
2024/04/27 02:26:42;;;;;;;;;;;;;;;;;;5495993;26;3370;-58
2024/04/27 02:29:08;;;;;;;;;;;;;;;;;;5499129;26;5179;-58
2024/04/27 02:31:33;;;;;;;;;;;;;;;;;;5464879;26;5242;-58
2024/04/27 02:33:58;;;;;;;;;;;;;;;;;;5507375;26;4808;-58
2024/04/27 02:36:24;;;;;;;;;;;;;;;;;;5509084;26;4585;-58
2024/04/27 02:38:50;;;;;;;;;;;;;;;;;;5513314;26;3253;-58
2024/04/27 02:41:15;;;;;;;;;;;;;;;;;;5475774;26;4522;-58
2024/04/27 02:43:41;;;;;;;;;;;;;;;;;;5497170;26;4808;-57
2024/04/27 02:46:06;;;;;;;;;;;;;;;;;;5508623;26;5117;-58
2024/04/27 02:48:32;;;;;;;;;;;;;;;;;;5515065;26;5163;-57
2024/04/27 02:50:57;;;;;;;;;;;;;;;;;;5509267;26;4787;-58
2024/04/27 02:53:22;;;;;;;;;;;;;;;;;;5499052;26;3473;-58
2024/04/27 02:55:48;;;;;;;;;;;;;;;;;;5513060;26;5055;-58
2024/04/27 02:58:13;;;;;;;;;;;;;;;;;;5512096;26;4659;-58
2024/04/27 03:00:38;;;;;;;;;;;;;;;;;;5491653;26;4525;-58
2024/04/27 03:03:04;;;;;;;;;;;;;;;;;;5515446;26;4589;-58
2024/04/27 03:05:29;;;;;;;;;;;;;;;;;;5490055;26;2887;-58
2024/04/27 03:07:55;;;;;;;;;;;;;;;;;;5479570;26;4764;-58
2024/04/27 03:10:20;;;;;;;;;;;;;;;;;;5496215;26;5342;-58
2024/04/27 03:12:50;;;;;;;;;;;;;;;;;;5496153;26;4617;-58
2024/04/27 03:15:15;;;;;;;;;;;;;;;;;;5515525;26;5129;-58
2024/04/27 03:17:41;;;;;;;;;;;;;;;;;;5516226;26;1410;-58
2024/04/27 03:20:07;;;;;;;;;;;;;;;;;;5509812;26;4496;-58
2024/04/27 03:22:32;;;;;;;;;;;;;;;;;;5507076;26;5232;-58
2024/04/27 03:24:57;;;;;;;;;;;;;;;;;;5503060;25;5219;-58
2024/04/27 03:27:23;;;;;;;;;;;;;;;;;;5507279;26;5092;-58
2024/04/27 03:29:51;;;;;;;;;;;;;;;;;;5499413;26;2349;-58
2024/04/27 03:32:16;;;;;;;;;;;;;;;;;;5515543;26;5042;-57
2024/04/27 03:34:42;;;;;;;;;;;;;;;;;;5515813;26;5000;-57
2024/04/27 03:37:07;;;;;;;;;;;;;;;;;;5515263;26;5252;-58
2024/04/27 03:39:38;;;;;;;;;;;;;;;;;;5503806;26;5091;-58
2024/04/27 03:42:05;;;;;;;;;;;;;;;;;;5511174;26;5111;-58
2024/04/27 03:44:31;;;;;;;;;;;;;;;;;;5478944;26;1251;-58
2024/04/27 03:46:58;;;;;;;;;;;;;;;;;;5510440;26;5036;-58
2024/04/27 03:49:23;;;;;;;;;;;;;;;;;;5507021;26;5137;-58
2024/04/27 03:51:49;;;;;;;;;;;;;;;;;;5493360;26;5346;-58
2024/04/27 03:54:14;;;;;;;;;;;;;;;;;;5484763;26;5158;-57
2024/04/27 03:56:40;;;;;;;;;;;;;;;;;;5504215;26;3496;-58
2024/04/27 03:59:06;;;;;;;;;;;;;;;;;;5461479;26;4542;-58
2024/04/27 04:01:36;;;;;;;;;;;;;;;;;;5514206;26;4561;-58
2024/04/27 04:04:02;;;;;;;;;;;;;;;;;;5505661;26;4674;-58
2024/04/27 04:06:28;;;;;;;;;;;;;;;;;;5507844;26;5773;-57
2024/04/27 04:08:54;;;;;;;;;;;;;;;;;;5517815;25;2453;-58
2024/04/27 04:11:19;;;;;;;;;;;;;;;;;;5511742;26;4956;-57
2024/04/27 04:13:45;;;;;;;;;;;;;;;;;;5490969;26;4790;-58
2024/04/27 04:16:10;;;;;;;;;;;;;;;;;;5509507;26;4652;-57
2024/04/27 04:18:36;;;;;;;;;;;;;;;;;;5478799;26;5358;-58
2024/04/27 04:21:01;;;;;;;;;;;;;;;;;;5505136;26;5304;-57
2024/04/27 04:23:27;;;;;;;;;;;;;;;;;;5490900;26;3288;-58
2024/04/27 04:25:52;;;;;;;;;;;;;;;;;;5471176;26;5187;-58
2024/04/27 04:28:17;;;;;;;;;;;;;;;;;;5498223;26;5308;-58
2024/04/27 04:30:43;;;;;;;;;;;;;;;;;;5499330;26;5147;-58
2024/04/27 04:33:09;;;;;;;;;;;;;;;;;;5485829;26;4591;-57
2024/04/27 04:35:34;;;;;;;;;;;;;;;;;;5496226;26;1368;-58
2024/04/27 04:37:59;;;;;;;;;;;;;;;;;;5491351;26;5234;-57
2024/04/27 04:40:25;;;;;;;;;;;;;;;;;;5481329;26;5084;-57
2024/04/27 04:42:53;;;;;;;;;;;;;;;;;;5490682;26;5092;-57
2024/04/27 04:45:18;;;;;;;;;;;;;;;;;;5491455;26;5230;-57
2024/04/27 04:47:44;;;;;;;;;;;;;;;;;;5517336;26;1365;-57
2024/04/27 04:50:09;;;;;;;;;;;;;;;;;;5499110;26;4570;-57
2024/04/27 04:52:38;;;;;;;;;;;;;;;;;;5496918;26;6061;-58
2024/04/27 04:55:03;;;;;;;;;;;;;;;;;;5467888;26;4630;-57
2024/04/27 04:57:29;;;;;;;;;;;;;;;;;;5509835;26;5359;-57
2024/04/27 04:59:54;;;;;;;;;;;;;;;;;;5502901;26;2992;-58
2024/04/27 05:02:19;;;;;;;;;;;;;;;;;;5501477;26;5042;-58
2024/04/27 05:04:45;;;;;;;;;;;;;;;;;;5466553;26;4595;-58
2024/04/27 05:07:10;;;;;;;;;;;;;;;;;;5513002;26;5875;-58
2024/04/27 05:09:36;;;;;;;;;;;;;;;;;;5500182;26;5074;-57
2024/04/27 05:12:01;;;;;;;;;;;;;;;;;;5496472;26;5147;-58
2024/04/27 05:14:26;;;;;;;;;;;;;;;;;;5507670;26;1206;-57
2024/04/27 05:16:52;;;;;;;;;;;;;;;;;;5494778;26;5148;-58
2024/04/27 05:19:17;;;;;;;;;;;;;;;;;;5504853;26;5026;-58
2024/04/27 05:21:43;;;;;;;;;;;;;;;;;;5506379;26;5828;-57
2024/04/27 05:24:09;;;;;;;;;;;;;;;;;;5502709;25;5081;-57
2024/04/27 05:26:34;;;;;;;;;;;;;;;;;;5503494;26;1371;-57
2024/04/27 05:28:59;;;;;;;;;;;;;;;;;;5468643;26;5381;-58
2024/04/27 05:31:25;;;;;;;;;;;;;;;;;;5504413;26;5091;-57
2024/04/27 05:33:50;;;;;;;;;;;;;;;;;;5509924;26;5294;-57
2024/04/27 05:36:16;;;;;;;;;;;;;;;;;;5506020;26;5285;-58
2024/04/27 05:38:41;;;;;;;;;;;;;;;;;;5494420;26;3388;-58
2024/04/27 05:41:07;;;;;;;;;;;;;;;;;;5506839;26;4978;-58
2024/04/27 05:43:32;;;;;;;;;;;;;;;;;;5513017;26;5035;-57
2024/04/27 05:45:57;;;;;;;;;;;;;;;;;;5505632;26;5090;-57
2024/04/27 05:48:23;;;;;;;;;;;;;;;;;;5507305;26;4668;-57
2024/04/27 05:50:48;;;;;;;;;;;;;;;;;;5506496;26;3369;-57
2024/04/27 05:53:13;;;;;;;;;;;;;;;;;;5516481;26;5130;-58
2024/04/27 05:55:39;;;;;;;;;;;;;;;;;;5503827;26;4527;-57
2024/04/27 05:58:04;;;;;;;;;;;;;;;;;;5501855;26;5013;-58
2024/04/27 06:00:29;;;;;;;;;;;;;;;;;;5504125;26;5117;-58
2024/04/27 06:02:55;;;;;;;;;;;;;;;;;;5517068;26;5158;-56
2024/04/27 06:05:20;;;;;;;;;;;;;;;;;;5496037;26;1318;-57
2024/04/27 06:07:45;;;;;;;;;;;;;;;;;;5505675;26;5836;-58
2024/04/27 06:10:11;;;;;;;;;;;;;;;;;;5476292;26;4704;-58
2024/04/27 06:12:36;;;;;;;;;;;;;;;;;;5508993;26;5228;-58
2024/04/27 06:15:02;;;;;;;;;;;;;;;;;;5515911;26;5128;-57
2024/04/27 06:17:27;;;;;;;;;;;;;;;;;;5491595;26;3226;-57
2024/04/27 06:19:53;;;;;;;;;;;;;;;;;;5500054;26;5488;-58
2024/04/27 06:22:18;;;;;;;;;;;;;;;;;;5495054;26;5262;-58
2024/04/27 06:24:43;;;;;;;;;;;;;;;;;;5509474;26;5121;-58
2024/04/27 06:27:09;;;;;;;;;;;;;;;;;;5494294;26;4872;-58
2024/04/27 06:29:34;;;;;;;;;;;;;;;;;;5501029;26;3179;-57
2024/04/27 06:31:59;;;;;;;;;;;;;;;;;;5507845;26;5068;-58
2024/04/27 06:34:25;;;;;;;;;;;;;;;;;;5496639;26;5190;-57
2024/04/27 06:36:50;;;;;;;;;;;;;;;;;;5505401;26;4869;-57
2024/04/27 06:39:16;;;;;;;;;;;;;;;;;;5503164;26;5006;-58
2024/04/27 06:41:41;;;;;;;;;;;;;;;;;;5460844;26;3348;-58
2024/04/27 06:44:07;;;;;;;;;;;;;;;;;;5493615;26;5200;-58
2024/04/27 06:46:32;;;;;;;;;;;;;;;;;;5506277;26;5130;-58
2024/04/27 06:48:57;;;;;;;;;;;;;;;;;;5507897;25;5303;-58
2024/04/27 06:51:23;;;;;;;;;;;;;;;;;;5503462;26;4693;-58
2024/04/27 06:53:48;;;;;;;;;;;;;;;;;;5498906;25;1507;-58
2024/04/27 06:56:13;;;;;;;;;;;;;;;;;;5515458;25;5155;-58
2024/04/27 06:58:39;;;;;;;;;;;;;;;;;;5511088;26;5083;-58
2024/04/27 07:01:04;;;;;;;;;;;;;;;;;;5490114;26;5077;-58
2024/04/27 07:03:30;;;;;;;;;;;;;;;;;;5500525;26;5093;-57
2024/04/27 07:05:55;;;;;;;;;;;;;;;;;;5520193;25;5091;-57
2024/04/27 07:08:20;;;;;;;;;;;;;;;;;;5503341;26;3461;-57
2024/04/27 07:10:46;;;;;;;;;;;;;;;;;;5500338;26;5084;-57
2024/04/27 07:13:11;;;;;;;;;;;;;;;;;;5513250;26;5138;-57
2024/04/27 07:15:36;;;;;;;;;;;;;;;;;;5506006;26;5300;-57
2024/04/27 07:18:02;;;;;;;;;;;;;;;;;;5507361;26;5290;-57
2024/04/27 07:20:27;;;;;;;;;;;;;;;;;;5494940;26;3518;-57
2024/04/27 07:22:52;;;;;;;;;;;;;;;;;;5495306;26;5195;-57
2024/04/27 07:25:18;;;;;;;;;;;;;;;;;;5500256;25;5187;-57
2024/04/27 07:27:43;;;;;;;;;;;;;;;;;;5509529;25;5246;-57
2024/04/27 07:30:08;;;;;;;;;;;;;;;;;;5460750;26;5087;-57
2024/04/27 07:32:34;;;;;;;;;;;;;;;;;;5504193;25;3200;-57
2024/04/27 07:34:59;;;;;;;;;;;;;;;;;;5489889;25;5132;-57
2024/04/27 07:37:25;;;;;;;;;;;;;;;;;;5498790;26;5508;-56
2024/04/27 07:39:50;;;;;;;;;;;;;;;;;;5509806;26;5085;-57
2024/04/27 07:42:15;;;;;;;;;;;;;;;;;;5512760;25;5117;-56
2024/04/27 07:44:40;;;;;;;;;;;;;;;;;;5514129;25;3326;-57
2024/04/27 07:47:06;;;;;;;;;;;;;;;;;;5506468;26;5339;-56
2024/04/27 07:49:31;;;;;;;;;;;;;;;;;;5509006;25;5326;-56
2024/04/27 07:51:56;;;;;;;;;;;;;;;;;;5474446;26;5646;-57
2024/04/27 07:54:22;;;;;;;;;;;;;;;;;;5506906;26;5107;-57
2024/04/27 07:56:47;;;;;;;;;;;;;;;;;;5514332;26;1294;-57
2024/04/27 07:59:13;;;;;;;;;;;;;;;;;;5498474;26;4625;-56
2024/04/27 08:01:38;;;;;;;;;;;;;;;;;;5511136;25;5261;-57
2024/04/27 08:04:03;;;;;;;;;;;;;;;;;;5497035;25;5395;-56
2024/04/27 08:06:29;;;;;;;;;;;;;;;;;;5499817;25;5116;-57
2024/04/27 08:08:54;;;;;;;;;;;;;;;;;;5511896;25;3302;-57
2024/04/27 08:11:19;;;;;;;;;;;;;;;;;;5504666;25;4619;-57
2024/04/27 08:13:48;;;;;;;;;;;;;;;;;;5505899;26;4683;-57
2024/04/27 08:16:13;;;;;;;;;;;;;;;;;;5495844;25;5157;-57
2024/04/27 08:18:39;;;;;;;;;;;;;;;;;;5513738;25;5028;-57
2024/04/27 08:21:04;;;;;;;;;;;;;;;;;;5504170;26;5638;-57
2024/04/27 08:23:29;;;;;;;;;;;;;;;;;;5497133;25;1887;-57
2024/04/27 08:25:55;;;;;;;;;;;;;;;;;;5507675;25;5053;-57
2024/04/27 08:28:20;;;;;;;;;;;;;;;;;;5510774;25;5127;-57
2024/04/27 08:30:46;;;;;;;;;;;;;;;;;;5515545;25;5181;-57
2024/04/27 08:33:11;;;;;;;;;;;;;;;;;;5495731;25;5122;-57
2024/04/27 08:35:38;;;;;;;;;;;;;;;;;;5499008;26;3380;-62
2024/04/27 08:38:03;;;;;;;;;;;;;;;;;;5518398;25;5607;-57
2024/04/27 08:40:29;;;;;;;;;;;;;;;;;;5456397;26;5321;-57
2024/04/27 08:42:58;;;;;;;;;;;;;;;;;;5506880;25;5215;-57
2024/04/27 08:45:23;;;;;;;;;;;;;;;;;;5513052;25;4643;-57
2024/04/27 08:47:49;;;;;;;;;;;;;;;;;;5461398;26;3284;-57
2024/04/27 08:50:14;;;;;;;;;;;;;;;;;;5459232;25;5141;-57
2024/04/27 08:52:40;;;;;;;;;;;;;;;;;;5517280;25;5736;-56
2024/04/27 08:55:05;;;;;;;;;;;;;;;;;;5505096;25;5130;-57
2024/04/27 08:57:30;;;;;;;;;;;;;;;;;;5491602;26;5085;-56
2024/04/27 08:59:56;;;;;;;;;;;;;;;;;;5472653;26;4591;-56
2024/04/27 09:02:22;;;;;;;;;;;;;;;;;;5481204;26;3386;-57
2024/04/27 09:04:49;;;;;;;;;;;;;;;;;;5473252;26;4522;-57
2024/04/27 09:07:15;;;;;;;;;;;;;;;;;;5516754;26;5000;-57
2024/04/27 09:09:41;;;;;;;;;;;;;;;;;;5523117;25;5127;-57
2024/04/27 09:12:07;;;;;;;;;;;;;;;;;;5518807;26;5147;-56
2024/04/27 09:14:32;;;;;;;;;;;;;;;;;;5510297;26;3394;-56
2024/04/27 09:16:57;;;;;;;;;;;;;;;;;;5459234;26;5078;-57
2024/04/27 09:19:28;;;;;;;;;;;;;;;;;;5485696;25;5123;-57
2024/04/27 09:21:53;;;;;;;;;;;;;;;;;;5513235;26;4541;-56
2024/04/27 09:24:19;;;;;;;;;;;;;;;;;;5517822;25;5143;-56
2024/04/27 09:26:50;;;;;;;;;;;;;;;;;;5512789;26;1222;-56
2024/04/27 09:29:16;;;;;;;;;;;;;;;;;;5496864;26;5028;-56
2024/04/27 09:31:41;;;;;;;;;;;;;;;;;;5510246;26;5224;-57
2024/04/27 09:34:07;;;;;;;;;;;;;;;;;;5499391;26;5227;-56
2024/04/27 09:36:39;;;;;;;;;;;;;;;;;;5500956;26;6298;-56
2024/04/27 09:39:07;;;;;;;;;;;;;;;;;;5494074;26;5204;-56
2024/04/27 09:41:33;;;;;;;;;;;;;;;;;;5475988;26;3387;-56
2024/04/27 09:44:00;;;;;;;;;;;;;;;;;;5502611;26;4618;-57
2024/04/27 09:46:28;;;;;;;;;;;;;;;;;;5500919;26;5108;-56
2024/04/27 09:48:55;;;;;;;;;;;;;;;;;;5451709;26;4545;-57
2024/04/27 09:51:22;;;;;;;;;;;;;;;;;;5504070;26;5201;-56
2024/04/27 09:53:47;;;;;;;;;;;;;;;;;;5508364;26;3469;-56
2024/04/27 09:56:12;;;;;;;;;;;;;;;;;;5475662;26;5080;-56
2024/04/27 09:58:39;;;;;;;;;;;;;;;;;;5473815;26;5183;-57
2024/04/27 10:01:04;;;;;;;;;;;;;;;;;;5519823;26;5107;-56
2024/04/27 10:03:30;;;;;;;;;;;;;;;;;;5466999;26;5064;-56
2024/04/27 10:05:55;;;;;;;;;;;;;;;;;;5476303;26;5747;-56
2024/04/27 10:08:23;;;;;;;;;;;;;;;;;;5505594;25;1516;-56
2024/04/27 10:10:57;;;;;;;;;;;;;;;;;;5518515;26;5083;-57
2024/04/27 10:13:22;;;;;;;;;;;;;;;;;;5479946;26;4690;-57
2024/04/27 10:15:47;;;;;;;;;;;;;;;;;;5504341;26;4542;-57
2024/04/27 10:18:21;;;;;;;;;;;;;;;;;;5458184;26;5163;-57
2024/04/27 10:20:52;;;;;;;;;;;;;;;;;;5506506;26;3148;-56
2024/04/27 10:23:18;;;;;;;;;;;;;;;;;;5500723;26;5012;-56
2024/04/27 10:25:47;;;;;;;;;;;;;;;;;;5497389;26;5122;-57
2024/04/27 10:28:13;;;;;;;;;;;;;;;;;;5501182;26;5294;-56
2024/04/27 10:30:38;;;;;;;;;;;;;;;;;;5500555;26;5235;-56
2024/04/27 10:33:07;;;;;;;;;;;;;;;;;;5517456;26;4703;-58
2024/04/27 10:35:33;;;;;;;;;;;;;;;;;;5505731;25;3173;-57
2024/04/27 10:37:58;;;;;;;;;;;;;;;;;;5504887;26;5393;-57
2024/04/27 10:40:24;;;;;;;;;;;;;;;;;;5499309;26;5171;-56
2024/04/27 10:42:50;;;;;;;;;;;;;;;;;;5506001;26;5135;-56
2024/04/27 10:45:15;;;;;;;;;;;;;;;;;;5506853;26;5269;-56
2024/04/27 10:47:41;;;;;;;;;;;;;;;;;;5519343;26;3425;-56
2024/04/27 10:50:08;;;;;;;;;;;;;;;;;;5508241;26;5271;-56
2024/04/27 10:52:33;;;;;;;;;;;;;;;;;;5495123;26;6173;-57
2024/04/27 10:54:58;;;;;;;;;;;;;;;;;;5512837;26;5103;-56
2024/04/27 10:57:24;;;;;;;;;;;;;;;;;;5480142;26;5244;-56
2024/04/27 10:59:49;;;;;;;;;;;;;;;;;;5507363;26;1239;-57
2024/04/27 11:02:15;;;;;;;;;;;;;;;;;;5516581;26;4504;-56
2024/04/27 11:04:40;;;;;;;;;;;;;;;;;;5510037;26;5098;-57
2024/04/27 11:07:06;;;;;;;;;;;;;;;;;;5512934;26;4541;-56
2024/04/27 11:09:31;;;;;;;;;;;;;;;;;;5521544;25;5069;-56
2024/04/27 11:11:57;;;;;;;;;;;;;;;;;;5444206;26;5213;-56
2024/04/27 11:14:22;;;;;;;;;;;;;;;;;;5510690;26;1356;-57
2024/04/27 11:16:48;;;;;;;;;;;;;;;;;;5518913;26;4633;-56
2024/04/27 11:19:14;;;;;;;;;;;;;;;;;;5518796;26;4643;-57
2024/04/27 11:21:39;;;;;;;;;;;;;;;;;;5504413;26;5971;-57
2024/04/27 11:24:05;;;;;;;;;;;;;;;;;;5476668;26;5355;-56
2024/04/27 11:26:30;;;;;;;;;;;;;;;;;;5501099;26;1242;-56
2024/04/27 11:28:55;;;;;;;;;;;;;;;;;;5509842;26;5186;-56
2024/04/27 11:31:21;;;;;;;;;;;;;;;;;;5513850;26;5099;-56
2024/04/27 11:33:46;;;;;;;;;;;;;;;;;;5503724;26;5159;-56
2024/04/27 11:36:11;;;;;;;;;;;;;;;;;;5503791;26;7399;-56
2024/04/27 11:38:37;;;;;;;;;;;;;;;;;;5503101;26;3266;-56
2024/04/27 11:41:02;;;;;;;;;;;;;;;;;;5476420;26;5060;-56
2024/04/27 11:43:28;;;;;;;;;;;;;;;;;;5511175;26;5082;-55
2024/04/27 11:45:53;;;;;;;;;;;;;;;;;;5509443;26;5185;-56
2024/04/27 11:48:19;;;;;;;;;;;;;;;;;;5482611;26;5915;-56
2024/04/27 11:50:44;;;;;;;;;;;;;;;;;;5498643;26;3364;-56
2024/04/27 11:53:10;;;;;;;;;;;;;;;;;;5459363;26;4976;-56
2024/04/27 11:55:35;;;;;;;;;;;;;;;;;;5507755;25;5257;-56
2024/04/27 11:58:00;;;;;;;;;;;;;;;;;;5509661;26;5085;-56
2024/04/27 12:00:26;;;;;;;;;;;;;;;;;;5500973;26;5245;-56
2024/04/27 12:02:52;;;;;;;;;;;;;;;;;;5509192;26;1368;-56
2024/04/27 12:05:17;;;;;;;;;;;;;;;;;;5492278;26;5190;-56
2024/04/27 12:07:42;;;;;;;;;;;;;;;;;;5464663;26;5040;-55
2024/04/27 12:10:08;;;;;;;;;;;;;;;;;;5491640;26;5088;-58
2024/04/27 12:12:33;;;;;;;;;;;;;;;;;;5484181;26;5351;-56
2024/04/27 12:14:59;;;;;;;;;;;;;;;;;;5513657;26;5241;-57
2024/04/27 12:17:24;;;;;;;;;;;;;;;;;;5518626;26;1395;-58
2024/04/27 12:19:49;;;;;;;;;;;;;;;;;;5510807;25;5001;-57
2024/04/27 12:22:15;;;;;;;;;;;;;;;;;;5513483;26;5910;-57
2024/04/27 12:24:40;;;;;;;;;;;;;;;;;;5516710;25;5281;-58
2024/04/27 12:27:05;;;;;;;;;;;;;;;;;;5513695;26;5184;-57
2024/04/27 12:29:31;;;;;;;;;;;;;;;;;;5514586;26;3378;-57
2024/04/27 12:31:56;;;;;;;;;;;;;;;;;;5510612;26;5057;-58
2024/04/27 12:34:21;;;;;;;;;;;;;;;;;;5494542;26;5134;-57
2024/04/27 12:36:47;;;;;;;;;;;;;;;;;;5515923;26;5935;-57
2024/04/27 12:39:12;;;;;;;;;;;;;;;;;;5513939;26;5074;-57
2024/04/27 12:41:37;;;;;;;;;;;;;;;;;;5505935;26;1421;-58
2024/04/27 12:44:03;;;;;;;;;;;;;;;;;;5514698;26;5241;-57
2024/04/27 12:46:28;;;;;;;;;;;;;;;;;;5506042;26;5153;-55
2024/04/27 12:48:54;;;;;;;;;;;;;;;;;;5507033;26;5250;-56
2024/04/27 12:51:19;;;;;;;;;;;;;;;;;;5500973;26;4609;-57
2024/04/27 12:53:44;;;;;;;;;;;;;;;;;;5508399;26;1290;-58
2024/04/27 12:56:10;;;;;;;;;;;;;;;;;;5508721;26;5730;-56
2024/04/27 12:58:35;;;;;;;;;;;;;;;;;;5474950;26;5136;-55
2024/04/27 13:01:01;;;;;;;;;;;;;;;;;;5519655;26;5090;-55
2024/04/27 13:03:27;;;;;;;;;;;;;;;;;;5507144;26;4683;-55
2024/04/27 13:05:52;;;;;;;;;;;;;;;;;;5515402;26;3312;-56
2024/04/27 13:08:18;;;;;;;;;;;;;;;;;;5498875;26;5729;-56
2024/04/27 13:10:43;;;;;;;;;;;;;;;;;;5479752;26;5066;-56
2024/04/27 13:13:08;;;;;;;;;;;;;;;;;;5511430;26;5208;-56
2024/04/27 13:15:34;;;;;;;;;;;;;;;;;;5496814;26;5288;-56
2024/04/27 13:17:59;;;;;;;;;;;;;;;;;;5510853;26;4506;-56
2024/04/27 13:20:25;;;;;;;;;;;;;;;;;;5505490;26;1290;-57
2024/04/27 13:22:50;;;;;;;;;;;;;;;;;;5510714;26;6098;-57
2024/04/27 13:25:15;;;;;;;;;;;;;;;;;;5514194;25;5332;-57
2024/04/27 13:27:41;;;;;;;;;;;;;;;;;;5501078;26;5188;-57
2024/04/27 13:30:06;;;;;;;;;;;;;;;;;;5464117;26;4648;-57
2024/04/27 13:32:32;;;;;;;;;;;;;;;;;;5511801;26;3357;-57
2024/04/27 13:34:57;;;;;;;;;;;;;;;;;;5507711;26;5150;-57
2024/04/27 13:37:23;;;;;;;;;;;;;;;;;;5501980;25;5310;-57
2024/04/27 13:39:48;;;;;;;;;;;;;;;;;;5505960;25;5115;-57
2024/04/27 13:42:13;;;;;;;;;;;;;;;;;;5509530;25;5125;-57
2024/04/27 13:44:39;;;;;;;;;;;;;;;;;;5504949;25;3239;-57
2024/04/27 13:47:04;;;;;;;;;;;;;;;;;;5493435;25;4998;-58
2024/04/27 13:49:29;;;;;;;;;;;;;;;;;;5491596;25;5133;-57
2024/04/27 13:51:55;;;;;;;;;;;;;;;;;;5482129;26;6131;-57
2024/04/27 13:54:20;;;;;;;;;;;;;;;;;;5509125;26;4504;-57
2024/04/27 13:56:45;;;;;;;;;;;;;;;;;;5497839;26;3239;-59
2024/04/27 13:59:11;;;;;;;;;;;;;;;;;;5515133;26;4969;-59
2024/04/27 14:01:36;;;;;;;;;;;;;;;;;;5487809;25;5084;-63
2024/04/27 14:04:02;;;;;;;;;;;;;;;;;;5503090;25;5161;-60
2024/04/27 14:06:27;;;;;;;;;;;;;;;;;;5502520;26;5274;-60
2024/04/27 14:08:52;;;;;;;;;;;;;;;;;;5471127;26;3146;-60
2024/04/27 14:11:18;;;;;;;;;;;;;;;;;;5467316;26;5166;-60
2024/04/27 14:13:43;;;;;;;;;;;;;;;;;;5502228;26;4513;-61
2024/04/27 14:16:08;;;;;;;;;;;;;;;;;;5503496;26;5326;-60
2024/04/27 14:18:34;;;;;;;;;;;;;;;;;;5496038;26;4710;-60
2024/04/27 14:20:59;;;;;;;;;;;;;;;;;;5500587;26;5183;-59
2024/04/27 14:23:24;;;;;;;;;;;;;;;;;;5515650;25;3286;-58
2024/04/27 14:25:50;;;;;;;;;;;;;;;;;;5469810;26;5236;-62
2024/04/27 14:28:15;;;;;;;;;;;;;;;;;;5513707;25;5084;-58
2024/04/27 14:30:41;;;;;;;;;;;;;;;;;;5510761;26;5134;-59
2024/04/27 14:33:06;;;;;;;;;;;;;;;;;;5498265;25;4680;-59
2024/04/27 14:35:32;;;;;;;;;;;;;;;;;;5487870;25;3509;-60
2024/04/27 14:37:57;;;;;;;;;;;;;;;;;;5508343;26;4686;-59
2024/04/27 14:40:22;;;;;;;;;;;;;;;;;;5499289;26;6031;-60
2024/04/27 14:42:48;;;;;;;;;;;;;;;;;;5497097;25;5124;-61
2024/04/27 14:45:13;;;;;;;;;;;;;;;;;;5500813;26;5038;-59
2024/04/27 14:47:38;;;;;;;;;;;;;;;;;;5491238;26;3621;-61
2024/04/27 14:50:04;;;;;;;;;;;;;;;;;;5500198;26;4928;-59
2024/04/27 14:52:29;;;;;;;;;;;;;;;;;;5500755;25;5190;-60
2024/04/27 14:54:55;;;;;;;;;;;;;;;;;;5502762;26;5036;-58
2024/04/27 14:57:20;;;;;;;;;;;;;;;;;;5477413;26;5064;-58
2024/04/27 14:59:46;;;;;;;;;;;;;;;;;;5517085;26;1322;-59
2024/04/27 15:02:11;;;;;;;;;;;;;;;;;;5503647;26;5166;-60
2024/04/27 15:04:37;;;;;;;;;;;;;;;;;;5512828;26;4646;-60
2024/04/27 15:07:02;;;;;;;;;;;;;;;;;;5518882;26;5041;-59
2024/04/27 15:09:28;;;;;;;;;;;;;;;;;;5506314;26;5383;-61
2024/04/27 15:11:53;;;;;;;;;;;;;;;;;;5505804;26;1836;-58
2024/04/27 15:14:19;;;;;;;;;;;;;;;;;;5499757;26;4463;-58
2024/04/27 15:16:44;;;;;;;;;;;;;;;;;;5468412;26;5208;-58
2024/04/27 15:19:09;;;;;;;;;;;;;;;;;;5511368;26;4984;-58
2024/04/27 15:21:36;;;;;;;;;;;;;;;;;;5515049;26;5721;-58
2024/04/27 15:24:01;;;;;;;;;;;;;;;;;;5515685;25;4650;-58
2024/04/27 15:26:27;;;;;;;;;;;;;;;;;;5493848;26;1324;-58
2024/04/27 15:28:52;;;;;;;;;;;;;;;;;;5509420;26;5002;-57
2024/04/27 15:31:18;;;;;;;;;;;;;;;;;;5508577;26;5302;-57
2024/04/27 15:33:43;;;;;;;;;;;;;;;;;;5518495;26;5215;-58
2024/04/27 15:36:09;;;;;;;;;;;;;;;;;;5514594;26;5142;-58
2024/04/27 15:38:34;;;;;;;;;;;;;;;;;;5502925;26;1457;-57
2024/04/27 15:40:59;;;;;;;;;;;;;;;;;;5504855;25;4470;-58
2024/04/27 15:43:25;;;;;;;;;;;;;;;;;;5475333;26;5211;-58
2024/04/27 15:45:50;;;;;;;;;;;;;;;;;;5466082;26;5220;-58
2024/04/27 15:48:16;;;;;;;;;;;;;;;;;;5509505;25;4784;-58
2024/04/27 15:50:41;;;;;;;;;;;;;;;;;;5509395;26;2378;-58
2024/04/27 15:53:06;;;;;;;;;;;;;;;;;;5509774;26;5138;-58
2024/04/27 15:55:32;;;;;;;;;;;;;;;;;;5516469;26;5165;-58
2024/04/27 15:57:57;;;;;;;;;;;;;;;;;;5507737;26;5057;-58
2024/04/27 16:00:22;;;;;;;;;;;;;;;;;;5512077;26;5166;-57
2024/04/27 16:02:48;;;;;;;;;;;;;;;;;;5502835;26;3245;-57
2024/04/27 16:05:13;;;;;;;;;;;;;;;;;;5501804;26;4639;-58
2024/04/27 16:07:38;;;;;;;;;;;;;;;;;;5507711;26;5211;-57
2024/04/27 16:10:04;;;;;;;;;;;;;;;;;;5487278;25;5100;-58
2024/04/27 16:12:31;;;;;;;;;;;;;;;;;;5493671;26;4747;-58
2024/04/27 16:14:56;;;;;;;;;;;;;;;;;;5512622;26;5216;-58
2024/04/27 16:17:21;;;;;;;;;;;;;;;;;;5512734;26;1402;-58
2024/04/27 16:19:47;;;;;;;;;;;;;;;;;;5461458;26;4513;-58
2024/04/27 16:22:12;;;;;;;;;;;;;;;;;;5512416;26;5079;-58
2024/04/27 16:24:37;;;;;;;;;;;;;;;;;;5504078;25;5137;-58
2024/04/27 16:27:03;;;;;;;;;;;;;;;;;;5478241;26;4678;-58
2024/04/27 16:29:28;;;;;;;;;;;;;;;;;;5514003;26;1384;-59
2024/04/27 16:31:54;;;;;;;;;;;;;;;;;;5482253;26;5033;-58
2024/04/27 16:34:19;;;;;;;;;;;;;;;;;;5508851;26;5211;-59
2024/04/27 16:36:44;;;;;;;;;;;;;;;;;;5508235;26;6048;-59
2024/04/27 16:39:10;;;;;;;;;;;;;;;;;;5497185;26;4513;-59
2024/04/27 16:41:35;;;;;;;;;;;;;;;;;;5475199;26;1414;-59
2024/04/27 16:44:00;;;;;;;;;;;;;;;;;;5512635;26;5179;-59
2024/04/27 16:46:26;;;;;;;;;;;;;;;;;;5501806;26;5061;-58
2024/04/27 16:48:51;;;;;;;;;;;;;;;;;;5517099;26;4664;-59
2024/04/27 16:51:17;;;;;;;;;;;;;;;;;;5514730;26;5096;-58
2024/04/27 16:53:46;;;;;;;;;;;;;;;;;;5517903;26;1371;-59